createdAt,value
2022-08-22T00:02:01.367Z,2.95
2022-08-22T00:03:04.340Z,2.90
2022-08-22T00:04:37.553Z,2.70
2022-08-22T00:07:11.235Z,2.97
2022-08-22T00:09:58.909Z,2.90
2022-08-22T00:12:31.339Z,3.00
2022-08-22T00:15:04.614Z,2.58
2022-08-22T00:17:35.255Z,3.00
2022-08-22T00:20:21.641Z,2.78
2022-08-22T00:23:03.962Z,2.83
2022-08-22T00:25:34.790Z,2.90
2022-08-22T00:28:08.947Z,2.70
2022-08-22T00:30:43.328Z,3.03
2022-08-22T00:33:25.204Z,2.55
2022-08-22T00:35:55.382Z,2.67
2022-08-22T00:38:27.337Z,2.78
2022-08-22T00:41:01.146Z,2.80
2022-08-22T00:43:31.635Z,2.70
2022-08-22T00:45:59.526Z,2.40
2022-08-22T00:48:45.778Z,2.90
2022-08-22T00:51:19.450Z,2.90
2022-08-22T00:53:50.454Z,2.70
2022-08-22T00:56:21.755Z,2.72
2022-08-22T00:58:52.006Z,2.63
2022-08-22T01:01:22.913Z,2.70
2022-08-22T01:04:20.738Z,3.55
2022-08-22T01:07:07.125Z,2.90
2022-08-22T01:09:41.587Z,2.75
2022-08-22T01:12:20.497Z,2.55
2022-08-22T01:15:00.744Z,2.40
2022-08-22T01:17:47.346Z,2.67
2022-08-22T01:20:33.595Z,2.60
2022-08-22T01:23:21.355Z,2.78
2022-08-22T01:25:49.133Z,2.90
2022-08-22T01:28:38.006Z,2.83
2022-08-22T01:31:21.186Z,2.58
2022-08-22T01:34:13.099Z,2.83
2022-08-22T01:36:41.021Z,2.63
2022-08-22T01:39:31.998Z,2.95
2022-08-22T01:42:03.182Z,2.90
2022-08-22T01:44:49.636Z,2.58
2022-08-22T01:47:24.675Z,2.85
2022-08-22T01:50:12.009Z,2.90
2022-08-22T01:52:48.897Z,2.53
2022-08-22T01:55:22.392Z,2.65
2022-08-22T01:57:58.906Z,2.80
2022-08-22T02:00:35.568Z,2.75
2022-08-22T02:03:22.105Z,2.65
2022-08-22T02:05:53.623Z,2.42
2022-08-22T02:08:41.652Z,2.40
2022-08-22T02:11:32.036Z,2.55
2022-08-22T02:14:30.857Z,2.50
2022-08-22T02:17:09.976Z,2.40
2022-08-22T02:20:04.047Z,2.80
2022-08-22T02:22:35.048Z,2.72
2022-08-22T02:25:14.674Z,2.55
2022-08-22T02:27:53.321Z,2.67
2022-08-22T02:30:29.575Z,2.72
2022-08-22T02:33:20.316Z,2.53
2022-08-22T02:35:52.647Z,2.40
2022-08-22T02:38:26.618Z,2.65
2022-08-22T02:41:04.470Z,2.60
2022-08-22T02:43:47.828Z,2.63
2022-08-22T02:46:23.699Z,2.45
2022-08-22T02:49:06.259Z,2.40
2022-08-22T02:51:49.045Z,2.78
2022-08-22T02:54:38.343Z,2.60
2022-08-22T02:57:14.032Z,2.38
2022-08-22T03:00:01.245Z,2.53
2022-08-22T03:02:29.012Z,2.63
2022-08-22T03:04:58.978Z,2.40
2022-08-22T03:07:32.236Z,2.70
2022-08-22T03:10:10.465Z,2.50
2022-08-22T03:12:45.705Z,2.42
2022-08-22T03:15:32.167Z,2.70
2022-08-22T03:18:00.316Z,2.63
2022-08-22T03:20:46.580Z,2.50
2022-08-22T03:23:18.388Z,2.38
2022-08-22T03:25:51.423Z,2.40
2022-08-22T03:28:24.948Z,2.28
2022-08-22T03:30:52.750Z,2.78
2022-08-22T03:33:22.822Z,2.53
2022-08-22T03:35:50.680Z,2.70
2022-08-22T03:38:25.823Z,2.47
2022-08-22T03:40:58.780Z,2.72
2022-08-22T03:43:44.950Z,2.38
2022-08-22T03:46:28.543Z,2.17
2022-08-22T03:49:09.420Z,2.50
2022-08-22T03:51:56.485Z,2.58
2022-08-22T03:54:45.544Z,2.58
2022-08-22T03:57:13.332Z,2.53
2022-08-22T03:59:59.713Z,2.58
2022-08-22T04:02:42.171Z,2.45
2022-08-22T04:05:30.140Z,2.60
2022-08-22T04:08:16.828Z,2.45
2022-08-22T04:10:45.372Z,2.67
2022-08-22T04:13:39.631Z,2.60
2022-08-22T04:16:21.000Z,2.90
2022-08-22T04:19:20.947Z,2.60
2022-08-22T04:22:05.084Z,2.55
2022-08-22T04:24:52.595Z,2.50
2022-08-22T04:27:43.737Z,2.40
2022-08-22T04:30:17.305Z,2.60
2022-08-22T04:32:46.253Z,2.30
2022-08-22T04:35:32.692Z,2.70
2022-08-22T04:38:03.967Z,2.60
2022-08-22T04:40:37.292Z,2.78
2022-08-22T04:43:10.263Z,2.35
2022-08-22T04:45:40.567Z,2.67
2022-08-22T04:48:17.262Z,2.72
2022-08-22T04:50:50.602Z,2.67
2022-08-22T04:53:24.798Z,2.70
2022-08-22T04:55:55.756Z,2.72
2022-08-22T04:58:23.631Z,2.70
2022-08-22T05:01:09.672Z,2.70
2022-08-22T05:03:44.735Z,2.25
2022-08-22T05:06:14.008Z,2.45
2022-08-22T05:08:43.204Z,2.58
2022-08-22T05:11:11.866Z,2.53
2022-08-22T05:13:43.260Z,2.47
2022-08-22T05:16:14.920Z,2.58
2022-08-22T05:18:46.347Z,2.60
2022-08-22T05:21:15.440Z,2.88
2022-08-22T05:23:50.694Z,2.60
2022-08-22T05:26:18.731Z,2.55
2022-08-22T05:28:53.450Z,2.28
2022-08-22T05:31:27.344Z,2.38
2022-08-22T05:34:00.961Z,2.53
2022-08-22T05:36:29.973Z,2.60
2022-08-22T05:39:03.624Z,2.63
2022-08-22T05:41:35.524Z,2.97
2022-08-22T05:44:03.851Z,2.60
2022-08-22T05:46:36.032Z,2.78
2022-08-22T05:49:04.430Z,2.80
2022-08-22T05:51:37.924Z,3.10
2022-08-22T05:54:13.322Z,3.30
2022-08-22T05:56:50.492Z,2.90
2022-08-22T05:59:24.789Z,2.55
2022-08-22T06:02:04.811Z,2.92
2022-08-22T06:04:54.919Z,3.13
2022-08-22T06:07:22.964Z,2.92
2022-08-22T06:10:09.502Z,3.10
2022-08-22T06:12:39.661Z,2.72
2022-08-22T06:15:20.778Z,2.88
2022-08-22T06:17:50.731Z,2.90
2022-08-22T06:20:24.084Z,3.20
2022-08-22T06:22:56.898Z,2.97
2022-08-22T06:25:31.376Z,3.35
2022-08-22T06:28:02.729Z,3.28
2022-08-22T06:30:31.827Z,3.22
2022-08-22T06:33:03.727Z,3.50
2022-08-22T06:35:55.194Z,2.80
2022-08-22T06:38:26.616Z,3.17
2022-08-22T06:40:55.066Z,3.47
2022-08-22T06:43:26.143Z,3.28
2022-08-22T06:45:54.241Z,3.35
2022-08-22T06:48:24.396Z,3.20
2022-08-22T06:50:54.175Z,3.25
2022-08-22T06:53:27.860Z,3.30
2022-08-22T06:55:56.944Z,3.22
2022-08-22T06:58:34.214Z,3.45
2022-08-22T07:01:14.966Z,3.60
2022-08-22T07:03:46.077Z,3.15
2022-08-22T07:06:18.587Z,3.78
2022-08-22T07:08:46.570Z,3.22
2022-08-22T07:11:14.349Z,3.90
2022-08-22T07:13:45.390Z,3.47
2022-08-22T07:16:13.402Z,3.78
2022-08-22T07:18:49.159Z,3.90
2022-08-22T07:21:30.737Z,3.28
2022-08-22T07:24:01.569Z,3.55
2022-08-22T07:26:38.384Z,3.58
2022-08-22T07:29:21.641Z,3.75
2022-08-22T07:31:51.284Z,3.58
2022-08-22T07:34:19.578Z,3.88
2022-08-22T07:36:56.057Z,3.85
2022-08-22T07:39:26.945Z,3.65
2022-08-22T07:41:55.113Z,3.85
2022-08-22T07:44:26.753Z,3.58
2022-08-22T07:47:01.512Z,3.70
2022-08-22T07:49:35.198Z,3.47
2022-08-22T07:52:10.047Z,3.63
2022-08-22T07:54:43.836Z,3.50
2022-08-22T07:57:14.224Z,3.70
2022-08-22T07:59:47.964Z,3.33
2022-08-22T08:02:17.137Z,3.03
2022-08-22T08:04:45.181Z,3.17
2022-08-22T08:07:15.229Z,2.83
2022-08-22T08:09:49.715Z,3.17
2022-08-22T08:12:20.113Z,3.10
2022-08-22T08:14:52.049Z,2.50
2022-08-22T08:17:31.987Z,2.50
2022-08-22T08:20:03.544Z,2.63
2022-08-22T08:22:32.000Z,2.40
2022-08-22T08:25:00.710Z,2.30
2022-08-22T08:27:59.975Z,2.20
2022-08-22T08:30:37.680Z,2.17
2022-08-22T08:33:25.656Z,2.47
2022-08-22T08:36:02.462Z,2.40
2022-08-22T08:38:34.068Z,1.90
2022-08-22T08:41:13.198Z,2.05
2022-08-22T08:43:46.189Z,1.77
2022-08-22T08:46:14.619Z,2.00
2022-08-22T08:48:58.573Z,2.00
2022-08-22T08:51:47.442Z,2.03
2022-08-22T08:54:43.595Z,1.98
2022-08-22T08:57:34.525Z,2.10
2022-08-22T09:00:13.520Z,2.05
2022-08-22T09:03:07.093Z,1.95
2022-08-22T09:05:54.041Z,1.95
2022-08-22T09:08:21.925Z,2.25
2022-08-22T09:10:55.929Z,1.92
2022-08-22T09:13:41.947Z,1.80
2022-08-22T09:16:19.134Z,1.67
2022-08-22T09:18:49.616Z,1.60
2022-08-22T09:21:31.214Z,1.80
2022-08-22T09:24:18.056Z,1.75
2022-08-22T09:26:51.363Z,1.90
2022-08-22T09:29:19.091Z,1.80
2022-08-22T09:31:58.304Z,1.70
2022-08-22T09:34:51.340Z,1.90
2022-08-22T09:37:25.362Z,1.80
2022-08-22T09:40:01.119Z,2.00
2022-08-22T09:42:35.541Z,2.08
2022-08-22T09:45:12.680Z,1.95
2022-08-22T09:47:50.102Z,1.80
2022-08-22T09:50:31.068Z,1.70
2022-08-22T09:53:05.078Z,2.05
2022-08-22T09:55:53.025Z,1.88
2022-08-22T09:58:21.372Z,1.90
2022-08-22T10:00:55.079Z,1.70
2022-08-22T10:03:23.184Z,1.70
2022-08-22T10:05:56.908Z,1.80
2022-08-22T10:08:40.398Z,2.10
2022-08-22T10:11:19.972Z,2.10
2022-08-22T10:13:47.793Z,2.10
2022-08-22T10:16:28.523Z,1.90
2022-08-22T10:19:11.724Z,1.80
2022-08-22T10:21:45.721Z,1.95
2022-08-22T10:24:33.583Z,1.98
2022-08-22T10:27:15.643Z,2.00
2022-08-22T10:29:46.630Z,2.25
2022-08-22T10:32:27.651Z,2.00
2022-08-22T10:34:58.139Z,1.95
2022-08-22T10:37:46.048Z,2.17
2022-08-22T10:40:22.370Z,1.90
2022-08-22T10:42:50.918Z,1.67
2022-08-22T10:45:32.137Z,1.63
2022-08-22T10:48:08.836Z,1.63
2022-08-22T10:50:37.838Z,1.60
2022-08-22T10:53:33.682Z,1.83
2022-08-22T10:56:14.440Z,1.88
2022-08-22T10:58:56.446Z,2.00
2022-08-22T11:01:38.295Z,1.80
2022-08-22T11:04:18.473Z,1.95
2022-08-22T11:06:49.789Z,1.60
2022-08-22T11:09:34.504Z,1.50
2022-08-22T11:12:07.572Z,1.33
2022-08-22T11:14:51.279Z,1.50
2022-08-22T11:17:31.052Z,1.48
2022-08-22T11:20:07.368Z,1.45
2022-08-22T11:22:45.799Z,1.50
2022-08-22T11:25:30.142Z,1.33
2022-08-22T11:28:15.763Z,1.60
2022-08-22T11:30:48.514Z,1.40
2022-08-22T11:33:18.700Z,1.40
2022-08-22T11:36:04.595Z,1.60
2022-08-22T11:38:38.748Z,1.50
2022-08-22T11:41:15.463Z,1.50
2022-08-22T11:43:59.289Z,1.40
2022-08-22T11:46:35.596Z,1.70
2022-08-22T11:49:09.602Z,1.48
2022-08-22T11:51:40.277Z,1.50
2022-08-22T11:54:12.537Z,1.58
2022-08-22T11:56:49.264Z,1.40
2022-08-22T11:59:34.237Z,1.63
2022-08-22T12:02:15.637Z,1.67
2022-08-22T12:04:53.739Z,1.30
2022-08-22T12:07:29.984Z,1.50
2022-08-22T12:10:24.190Z,1.30
2022-08-22T12:12:51.882Z,1.50
2022-08-22T12:15:29.085Z,1.30
2022-08-22T12:18:01.898Z,1.60
2022-08-22T12:20:33.168Z,1.52
2022-08-22T12:23:07.281Z,1.40
2022-08-22T12:25:50.382Z,1.45
2022-08-22T12:28:21.138Z,1.40
2022-08-22T12:30:53.556Z,1.70
2022-08-22T12:33:28.721Z,1.40
2022-08-22T12:35:57.729Z,1.40
2022-08-22T12:38:33.698Z,1.67
2022-08-22T12:41:08.422Z,1.50
2022-08-22T12:43:54.591Z,1.42
2022-08-22T12:46:46.745Z,1.60
2022-08-22T12:49:18.225Z,1.70
2022-08-22T12:52:08.736Z,1.48
2022-08-22T12:54:59.777Z,1.55
2022-08-22T12:57:50.574Z,1.70
2022-08-22T13:00:45.297Z,1.67
2022-08-22T13:03:29.689Z,1.65
2022-08-22T13:06:00.574Z,1.48
2022-08-22T13:08:29.828Z,1.42
2022-08-22T13:11:01.464Z,1.80
2022-08-22T13:13:37.241Z,1.60
2022-08-22T13:16:12.021Z,1.50
2022-08-22T13:18:54.580Z,1.60
2022-08-22T13:21:36.018Z,1.50
2022-08-22T13:24:38.848Z,1.52
2022-08-22T13:27:25.890Z,1.50
2022-08-22T13:30:01.800Z,1.40
2022-08-22T13:32:46.486Z,1.52
2022-08-22T13:35:24.008Z,1.60
2022-08-22T13:37:55.139Z,1.60
2022-08-22T13:40:29.402Z,1.40
2022-08-22T13:43:11.477Z,1.30
2022-08-22T13:45:41.754Z,1.48
2022-08-22T13:48:14.399Z,1.40
2022-08-22T13:50:57.557Z,1.90
2022-08-22T13:53:37.649Z,1.40
2022-08-22T13:56:07.875Z,1.42
2022-08-22T13:58:48.621Z,1.33
2022-08-22T14:01:25.548Z,1.40
2022-08-22T14:04:02.667Z,1.60
2022-08-22T14:06:50.837Z,1.50
2022-08-22T14:09:32.043Z,1.50
2022-08-22T14:12:19.425Z,1.60
2022-08-22T14:14:49.302Z,1.52
2022-08-22T14:17:24.188Z,1.60
2022-08-22T14:19:59.101Z,1.42
2022-08-22T14:22:35.106Z,1.70
2022-08-22T14:25:07.378Z,1.40
2022-08-22T14:27:35.421Z,1.50
2022-08-22T14:30:08.041Z,1.80
2022-08-22T14:32:41.781Z,1.75
2022-08-22T14:35:29.311Z,1.67
2022-08-22T14:38:27.407Z,1.75
2022-08-22T14:41:03.340Z,1.70
2022-08-22T14:43:31.322Z,1.58
2022-08-22T14:46:02.457Z,1.70
2022-08-22T14:49:06.198Z,1.75
2022-08-22T14:51:34.208Z,1.50
2022-08-22T14:54:21.457Z,1.80
2022-08-22T14:56:50.721Z,1.60
2022-08-22T14:59:45.549Z,1.73
2022-08-22T15:02:14.734Z,1.70
2022-08-22T15:04:45.661Z,1.52
2022-08-22T15:07:25.903Z,1.80
2022-08-22T15:09:53.900Z,1.70
2022-08-22T15:12:22.190Z,1.70
2022-08-22T15:14:52.380Z,1.80
2022-08-22T15:17:44.104Z,1.70
2022-08-22T15:20:13.281Z,1.60
2022-08-22T15:22:45.440Z,1.90
2022-08-22T15:25:18.543Z,1.80
2022-08-22T15:27:49.266Z,1.83
2022-08-22T15:30:20.554Z,1.77
2022-08-22T15:32:49.407Z,1.85
2022-08-22T15:35:27.954Z,1.70
2022-08-22T15:38:01.921Z,1.92
2022-08-22T15:40:35.072Z,1.90
2022-08-22T15:43:35.369Z,1.83
2022-08-22T15:46:29.177Z,1.60
2022-08-22T15:49:04.020Z,1.63
2022-08-22T15:51:38.124Z,1.73
2022-08-22T15:54:34.491Z,1.75
2022-08-22T15:57:11.332Z,1.80
2022-08-22T15:59:53.406Z,1.73
2022-08-22T16:02:22.458Z,1.90
2022-08-22T16:04:57.925Z,1.52
2022-08-22T16:07:39.280Z,1.50
2022-08-22T16:10:27.274Z,1.85
2022-08-22T16:13:11.704Z,1.60
2022-08-22T16:15:55.895Z,1.70
2022-08-22T16:18:37.431Z,1.80
2022-08-22T16:21:07.297Z,1.70
2022-08-22T16:23:50.208Z,1.90
2022-08-22T16:26:21.591Z,1.70
2022-08-22T16:28:58.224Z,1.70
2022-08-22T16:31:29.385Z,1.70
2022-08-22T16:33:58.486Z,1.80
2022-08-22T16:36:32.593Z,2.25
2022-08-22T16:39:01.372Z,2.10
2022-08-22T16:41:31.361Z,2.20
2022-08-22T16:44:21.471Z,2.20
2022-08-22T16:46:50.115Z,1.73
2022-08-22T16:49:27.044Z,1.90
2022-08-22T16:52:24.242Z,1.70
2022-08-22T16:54:56.017Z,1.88
2022-08-22T16:57:34.036Z,1.90
2022-08-22T17:00:24.753Z,2.10
2022-08-22T17:03:04.737Z,2.00
2022-08-22T17:05:32.884Z,1.88
2022-08-22T17:08:07.739Z,1.70
2022-08-22T17:10:44.764Z,2.00
2022-08-22T17:13:41.958Z,1.80
2022-08-22T17:16:16.515Z,1.75
2022-08-22T17:18:47.250Z,1.90
2022-08-22T17:21:35.421Z,1.63
2022-08-22T17:24:32.038Z,1.90
2022-08-22T17:27:07.283Z,1.90
2022-08-22T17:29:46.863Z,1.90
2022-08-22T17:32:20.111Z,1.80
2022-08-22T17:35:08.192Z,1.70
2022-08-22T17:37:53.098Z,1.75
2022-08-22T17:40:24.088Z,1.80
2022-08-22T17:43:03.914Z,1.85
2022-08-22T17:45:41.630Z,1.80
2022-08-22T17:48:16.293Z,1.75
2022-08-22T17:50:53.240Z,1.67
2022-08-22T17:53:27.746Z,1.73
2022-08-22T17:56:04.078Z,1.90
2022-08-22T17:58:43.704Z,1.80
2022-08-22T18:01:37.474Z,1.70
2022-08-22T18:04:06.697Z,1.80
2022-08-22T18:06:36.710Z,1.70
2022-08-22T18:09:14.019Z,1.73
2022-08-22T18:12:03.521Z,1.83
2022-08-22T18:14:41.482Z,1.95
2022-08-22T18:17:35.657Z,2.60
2022-08-22T18:20:08.169Z,1.80
2022-08-22T18:23:05.554Z,1.60
2022-08-22T18:25:59.316Z,1.88
2022-08-22T18:28:36.658Z,1.77
2022-08-22T18:31:08.173Z,1.70
2022-08-22T18:33:43.669Z,1.80
2022-08-22T18:36:27.250Z,1.60
2022-08-22T18:38:55.825Z,2.03
2022-08-22T18:41:31.387Z,1.88
2022-08-22T18:44:00.146Z,1.80
2022-08-22T18:46:27.861Z,1.75
2022-08-22T18:49:14.518Z,2.30
2022-08-22T18:51:43.347Z,1.90
2022-08-22T18:54:11.786Z,1.90
2022-08-22T18:56:39.550Z,2.00
2022-08-22T18:59:25.771Z,2.05
2022-08-22T19:02:01.871Z,1.80
2022-08-22T19:04:44.421Z,2.00
2022-08-22T19:07:15.682Z,2.00
2022-08-22T19:09:46.560Z,1.83
2022-08-22T19:12:14.604Z,1.77
2022-08-22T19:14:42.393Z,2.00
2022-08-22T19:17:13.855Z,1.92
2022-08-22T19:20:22.426Z,2.03
2022-08-22T19:22:50.991Z,1.90
2022-08-22T19:25:19.095Z,2.08
2022-08-22T19:28:05.738Z,2.00
2022-08-22T19:30:45.595Z,2.10
2022-08-22T19:33:13.398Z,2.15
2022-08-22T19:35:46.062Z,1.98
2022-08-22T19:38:33.822Z,2.05
2022-08-22T19:41:02.010Z,1.90
2022-08-22T19:43:32.600Z,1.80
2022-08-22T19:46:03.922Z,2.25
2022-08-22T19:48:37.296Z,2.10
2022-08-22T19:51:13.529Z,1.90
2022-08-22T19:53:51.081Z,2.08
2022-08-22T19:56:25.196Z,2.00
2022-08-22T19:59:01.658Z,2.10
2022-08-22T20:01:56.386Z,1.80
2022-08-22T20:04:27.738Z,2.10
2022-08-22T20:07:01.375Z,1.80
2022-08-22T20:09:44.229Z,1.83
2022-08-22T20:12:18.190Z,1.90
2022-08-22T20:14:47.153Z,2.00
2022-08-22T20:17:15.179Z,2.17
2022-08-22T20:22:43.854Z,2.13
2022-08-22T20:25:20.728Z,1.95
2022-08-22T20:28:11.260Z,2.20
2022-08-22T20:30:39.158Z,2.40
2022-08-22T20:33:14.098Z,2.15
2022-08-22T20:36:02.739Z,2.10
2022-08-22T20:38:38.537Z,2.10
2022-08-22T20:41:15.108Z,1.80
2022-08-22T20:43:51.683Z,2.20
2022-08-22T20:46:47.522Z,2.15
2022-08-22T20:49:33.133Z,2.30
2022-08-22T20:52:02.742Z,2.03
2022-08-22T20:54:32.764Z,2.10
2022-08-22T20:57:02.597Z,2.35
2022-08-22T20:59:32.111Z,2.13
2022-08-22T21:02:04.867Z,2.20
2022-08-22T21:04:42.514Z,2.30
2022-08-22T21:07:10.777Z,2.20
2022-08-22T21:09:57.664Z,2.13
2022-08-22T21:12:26.601Z,2.30
2022-08-22T21:14:54.371Z,2.30
2022-08-22T21:17:24.730Z,2.05
2022-08-22T21:19:53.074Z,1.95
2022-08-22T21:22:33.054Z,2.10
2022-08-22T21:25:01.834Z,2.60
2022-08-22T21:27:31.515Z,2.10
2022-08-22T21:30:00.437Z,2.08
2022-08-22T21:32:28.206Z,2.38
2022-08-22T21:34:56.655Z,2.30
2022-08-22T21:37:24.412Z,2.17
2022-08-22T21:39:57.211Z,2.63
2022-08-22T21:42:27.471Z,2.30
2022-08-22T21:44:57.262Z,2.10
2022-08-22T21:47:32.881Z,2.00
2022-08-22T21:50:09.551Z,2.10
2022-08-22T21:52:39.491Z,2.15
2022-08-22T21:55:36.732Z,2.10
2022-08-22T21:58:07.484Z,2.22
2022-08-22T22:00:48.767Z,2.20
2022-08-22T22:03:18.414Z,2.15
2022-08-22T22:05:46.425Z,2.25
2022-08-22T22:08:14.387Z,2.30
2022-08-22T22:10:43.527Z,2.08
2022-08-22T22:13:11.889Z,2.08
2022-08-22T22:15:47.548Z,2.03
2022-08-22T22:18:16.684Z,2.05
2022-08-22T22:20:45.115Z,2.72
2022-08-22T22:23:12.963Z,2.40
2022-08-22T22:25:42.482Z,2.35
2022-08-22T22:28:12.309Z,2.33
2022-08-22T22:30:40.468Z,2.25
2022-08-22T22:33:08.346Z,2.20
2022-08-22T22:35:38.016Z,2.20
2022-08-22T22:38:05.974Z,2.38
2022-08-22T22:40:33.815Z,2.40
2022-08-22T22:43:01.767Z,2.22
2022-08-22T22:45:29.642Z,2.38
2022-08-22T22:47:57.479Z,2.03
2022-08-22T22:50:25.653Z,2.25
2022-08-22T22:52:54.024Z,1.90
2022-08-22T22:55:24.719Z,2.10
2022-08-22T22:57:59.219Z,2.30
2022-08-22T23:00:31.052Z,2.28
2022-08-22T23:03:02.951Z,2.10
2022-08-22T23:05:31.136Z,2.30
2022-08-22T23:07:59.525Z,2.33
2022-08-22T23:10:27.833Z,2.45
2022-08-22T23:12:55.938Z,2.22
2022-08-22T23:15:23.683Z,2.10
2022-08-22T23:17:51.857Z,2.20
2022-08-22T23:20:19.834Z,2.08
2022-08-22T23:22:47.955Z,2.47
2022-08-22T23:25:16.067Z,2.30
2022-08-22T23:27:44.368Z,2.22
2022-08-22T23:30:16.453Z,2.40
2022-08-22T23:32:44.151Z,2.40
2022-08-22T23:35:12.037Z,2.38
2022-08-22T23:37:39.829Z,2.10
2022-08-22T23:40:09.430Z,2.10
2022-08-22T23:42:37.363Z,2.45
2022-08-22T23:45:05.478Z,2.55
2022-08-22T23:47:33.279Z,2.47
2022-08-22T23:50:06.028Z,2.15
2022-08-22T23:52:34.484Z,2.30
2022-08-22T23:55:02.318Z,2.05
2022-08-22T23:57:30.176Z,2.10
2022-08-22T23:59:58.570Z,2.10
